sensor_id;sensor_type;location;lat;lon;timestamp;P1;durP1;ratioP1;P2;durP2;ratioP2
14373;SDS011;7270;49.004;12.066;2023-03-30T00:01:29;1.10;;;1.10;;
14373;SDS011;7270;49.004;12.066;2023-03-30T00:03:56;1.10;;;1.10;;
14373;SDS011;7270;49.004;12.066;2023-03-30T00:06:23;1.10;;;1.10;;
14373;SDS011;7270;49.004;12.066;2023-03-30T00:08:51;1.00;;;1.00;;
14373;SDS011;7270;49.004;12.066;2023-03-30T00:11:21;1.27;;;1.27;;
14373;SDS011;7270;49.004;12.066;2023-03-30T00:13:49;1.00;;;1.00;;
14373;SDS011;7270;49.004;12.066;2023-03-30T00:16:16;1.13;;;1.13;;
14373;SDS011;7270;49.004;12.066;2023-03-30T00:18:43;1.20;;;1.20;;
14373;SDS011;7270;49.004;12.066;2023-03-30T00:21:10;1.10;;;1.10;;
14373;SDS011;7270;49.004;12.066;2023-03-30T00:23:36;1.10;;;1.10;;
14373;SDS011;7270;49.004;12.066;2023-03-30T00:26:03;1.10;;;1.10;;
14373;SDS011;7270;49.004;12.066;2023-03-30T00:28:29;1.00;;;1.00;;
14373;SDS011;7270;49.004;12.066;2023-03-30T00:30:55;1.20;;;1.20;;
14373;SDS011;7270;49.004;12.066;2023-03-30T00:33:23;1.20;;;1.20;;
14373;SDS011;7270;49.004;12.066;2023-03-30T00:35:51;1.10;;;1.10;;
14373;SDS011;7270;49.004;12.066;2023-03-30T00:38:18;1.20;;;1.20;;
14373;SDS011;7270;49.004;12.066;2023-03-30T00:40:49;1.20;;;1.20;;
14373;SDS011;7270;49.004;12.066;2023-03-30T00:43:15;1.17;;;1.17;;
14373;SDS011;7270;49.004;12.066;2023-03-30T00:45:42;1.17;;;1.17;;
14373;SDS011;7270;49.004;12.066;2023-03-30T00:48:08;1.10;;;1.10;;
14373;SDS011;7270;49.004;12.066;2023-03-30T00:50:38;1.00;;;1.00;;
14373;SDS011;7270;49.004;12.066;2023-03-30T00:53:08;1.10;;;1.10;;
14373;SDS011;7270;49.004;12.066;2023-03-30T00:55:36;1.17;;;1.17;;
14373;SDS011;7270;49.004;12.066;2023-03-30T00:58:03;1.10;;;1.10;;
14373;SDS011;7270;49.004;12.066;2023-03-30T01:00:30;1.00;;;1.00;;
14373;SDS011;7270;49.004;12.066;2023-03-30T01:02:58;1.10;;;1.10;;
14373;SDS011;7270;49.004;12.066;2023-03-30T01:05:25;1.10;;;1.10;;
14373;SDS011;7270;49.004;12.066;2023-03-30T01:07:53;1.10;;;1.10;;
14373;SDS011;7270;49.004;12.066;2023-03-30T01:10:22;1.10;;;1.10;;
14373;SDS011;7270;49.004;12.066;2023-03-30T01:12:48;1.20;;;1.20;;
14373;SDS011;7270;49.004;12.066;2023-03-30T01:15:15;1.10;;;1.10;;
14373;SDS011;7270;49.004;12.066;2023-03-30T01:17:48;1.37;;;1.27;;
14373;SDS011;7270;49.004;12.066;2023-03-30T01:20:33;1.10;;;1.10;;
14373;SDS011;7270;49.004;12.066;2023-03-30T01:23:15;1.20;;;1.20;;
14373;SDS011;7270;49.004;12.066;2023-03-30T01:26:02;1.10;;;1.10;;
14373;SDS011;7270;49.004;12.066;2023-03-30T01:28:36;1.10;;;1.10;;
14373;SDS011;7270;49.004;12.066;2023-03-30T01:31:24;1.20;;;1.20;;
14373;SDS011;7270;49.004;12.066;2023-03-30T01:34:00;1.00;;;1.00;;
14373;SDS011;7270;49.004;12.066;2023-03-30T01:36:38;1.10;;;1.10;;
14373;SDS011;7270;49.004;12.066;2023-03-30T01:39:17;1.20;;;1.20;;
14373;SDS011;7270;49.004;12.066;2023-03-30T01:41:47;1.00;;;1.00;;
14373;SDS011;7270;49.004;12.066;2023-03-30T01:44:17;1.10;;;1.10;;
14373;SDS011;7270;49.004;12.066;2023-03-30T01:46:45;1.10;;;1.10;;
14373;SDS011;7270;49.004;12.066;2023-03-30T01:49:13;1.10;;;1.10;;
14373;SDS011;7270;49.004;12.066;2023-03-30T01:51:43;1.00;;;1.00;;
14373;SDS011;7270;49.004;12.066;2023-03-30T01:54:11;1.10;;;1.10;;
14373;SDS011;7270;49.004;12.066;2023-03-30T01:56:40;1.10;;;1.10;;
14373;SDS011;7270;49.004;12.066;2023-03-30T01:59:09;1.00;;;1.00;;
14373;SDS011;7270;49.004;12.066;2023-03-30T02:01:37;1.00;;;1.00;;
14373;SDS011;7270;49.004;12.066;2023-03-30T02:04:06;1.17;;;1.17;;
14373;SDS011;7270;49.004;12.066;2023-03-30T02:06:33;1.00;;;1.00;;
14373;SDS011;7270;49.004;12.066;2023-03-30T02:09:03;1.03;;;1.03;;
14373;SDS011;7270;49.004;12.066;2023-03-30T02:11:31;1.10;;;1.10;;
14373;SDS011;7270;49.004;12.066;2023-03-30T02:13:59;1.10;;;1.10;;
14373;SDS011;7270;49.004;12.066;2023-03-30T02:16:28;1.10;;;1.10;;
14373;SDS011;7270;49.004;12.066;2023-03-30T02:18:55;1.10;;;1.10;;
14373;SDS011;7270;49.004;12.066;2023-03-30T02:21:22;1.00;;;1.00;;
14373;SDS011;7270;49.004;12.066;2023-03-30T02:23:49;1.00;;;1.00;;
14373;SDS011;7270;49.004;12.066;2023-03-30T02:26:18;1.00;;;1.00;;
14373;SDS011;7270;49.004;12.066;2023-03-30T02:28:44;1.10;;;1.10;;
14373;SDS011;7270;49.004;12.066;2023-03-30T02:31:13;1.00;;;1.00;;
14373;SDS011;7270;49.004;12.066;2023-03-30T02:33:42;1.10;;;1.10;;
14373;SDS011;7270;49.004;12.066;2023-03-30T02:36:17;1.30;;;1.20;;
14373;SDS011;7270;49.004;12.066;2023-03-30T02:38:52;1.10;;;1.10;;
14373;SDS011;7270;49.004;12.066;2023-03-30T02:41:24;1.20;;;1.20;;
14373;SDS011;7270;49.004;12.066;2023-03-30T02:43:55;1.20;;;1.20;;
14373;SDS011;7270;49.004;12.066;2023-03-30T02:49:09;1.20;;;1.20;;
14373;SDS011;7270;49.004;12.066;2023-03-30T02:51:39;1.10;;;1.10;;
14373;SDS011;7270;49.004;12.066;2023-03-30T02:54:09;1.20;;;1.20;;
14373;SDS011;7270;49.004;12.066;2023-03-30T02:56:39;1.10;;;1.10;;
14373;SDS011;7270;49.004;12.066;2023-03-30T02:59:09;1.00;;;1.00;;
14373;SDS011;7270;49.004;12.066;2023-03-30T03:01:38;1.10;;;1.10;;
14373;SDS011;7270;49.004;12.066;2023-03-30T03:04:05;1.10;;;1.10;;
14373;SDS011;7270;49.004;12.066;2023-03-30T03:06:35;1.00;;;1.00;;
14373;SDS011;7270;49.004;12.066;2023-03-30T03:09:02;1.10;;;1.10;;
14373;SDS011;7270;49.004;12.066;2023-03-30T03:11:29;1.10;;;1.10;;
14373;SDS011;7270;49.004;12.066;2023-03-30T03:13:55;1.10;;;1.10;;
14373;SDS011;7270;49.004;12.066;2023-03-30T03:16:22;1.10;;;1.10;;
14373;SDS011;7270;49.004;12.066;2023-03-30T03:18:48;1.10;;;1.10;;
14373;SDS011;7270;49.004;12.066;2023-03-30T03:21:14;1.10;;;1.10;;
14373;SDS011;7270;49.004;12.066;2023-03-30T03:23:42;1.10;;;1.10;;
14373;SDS011;7270;49.004;12.066;2023-03-30T03:26:12;1.10;;;1.10;;
14373;SDS011;7270;49.004;12.066;2023-03-30T03:28:38;1.10;;;1.10;;
14373;SDS011;7270;49.004;12.066;2023-03-30T03:31:05;1.20;;;1.20;;
14373;SDS011;7270;49.004;12.066;2023-03-30T03:33:31;1.20;;;1.20;;
14373;SDS011;7270;49.004;12.066;2023-03-30T03:35:57;1.30;;;1.20;;
14373;SDS011;7270;49.004;12.066;2023-03-30T03:38:24;1.10;;;1.10;;
14373;SDS011;7270;49.004;12.066;2023-03-30T03:40:53;1.20;;;1.20;;
14373;SDS011;7270;49.004;12.066;2023-03-30T03:43:19;1.10;;;1.10;;
14373;SDS011;7270;49.004;12.066;2023-03-30T03:45:46;1.10;;;1.10;;
14373;SDS011;7270;49.004;12.066;2023-03-30T03:48:13;1.20;;;1.20;;
14373;SDS011;7270;49.004;12.066;2023-03-30T03:50:39;1.13;;;1.13;;
14373;SDS011;7270;49.004;12.066;2023-03-30T03:53:06;1.20;;;1.20;;
14373;SDS011;7270;49.004;12.066;2023-03-30T03:55:33;1.10;;;1.10;;
14373;SDS011;7270;49.004;12.066;2023-03-30T03:58:01;1.20;;;1.20;;
14373;SDS011;7270;49.004;12.066;2023-03-30T04:00:27;1.10;;;1.10;;
14373;SDS011;7270;49.004;12.066;2023-03-30T04:02:54;1.00;;;1.00;;
14373;SDS011;7270;49.004;12.066;2023-03-30T04:05:21;1.10;;;1.10;;
14373;SDS011;7270;49.004;12.066;2023-03-30T04:07:47;1.10;;;1.10;;
14373;SDS011;7270;49.004;12.066;2023-03-30T04:10:14;1.20;;;1.20;;
14373;SDS011;7270;49.004;12.066;2023-03-30T04:12:40;1.20;;;1.20;;
14373;SDS011;7270;49.004;12.066;2023-03-30T04:15:08;1.20;;;1.20;;
14373;SDS011;7270;49.004;12.066;2023-03-30T04:17:35;1.00;;;1.00;;
14373;SDS011;7270;49.004;12.066;2023-03-30T04:20:01;1.13;;;1.13;;
14373;SDS011;7270;49.004;12.066;2023-03-30T04:22:30;1.00;;;1.00;;
14373;SDS011;7270;49.004;12.066;2023-03-30T04:24:57;1.10;;;1.10;;
14373;SDS011;7270;49.004;12.066;2023-03-30T04:27:24;1.10;;;1.10;;
14373;SDS011;7270;49.004;12.066;2023-03-30T04:29:52;1.20;;;1.20;;
14373;SDS011;7270;49.004;12.066;2023-03-30T04:32:23;1.20;;;1.20;;
14373;SDS011;7270;49.004;12.066;2023-03-30T04:34:49;1.10;;;1.10;;
14373;SDS011;7270;49.004;12.066;2023-03-30T04:37:20;1.10;;;1.10;;
14373;SDS011;7270;49.004;12.066;2023-03-30T04:39:48;1.20;;;1.20;;
14373;SDS011;7270;49.004;12.066;2023-03-30T04:42:14;1.20;;;1.20;;
14373;SDS011;7270;49.004;12.066;2023-03-30T04:44:44;1.13;;;1.13;;
14373;SDS011;7270;49.004;12.066;2023-03-30T04:47:10;1.00;;;1.00;;
14373;SDS011;7270;49.004;12.066;2023-03-30T04:49:38;1.13;;;1.13;;
14373;SDS011;7270;49.004;12.066;2023-03-30T04:52:04;1.10;;;1.10;;
14373;SDS011;7270;49.004;12.066;2023-03-30T04:54:30;1.10;;;1.10;;
14373;SDS011;7270;49.004;12.066;2023-03-30T04:56:56;1.10;;;1.10;;
14373;SDS011;7270;49.004;12.066;2023-03-30T04:59:23;1.20;;;1.20;;
14373;SDS011;7270;49.004;12.066;2023-03-30T05:01:49;1.30;;;1.20;;
14373;SDS011;7270;49.004;12.066;2023-03-30T05:04:15;1.10;;;1.10;;
14373;SDS011;7270;49.004;12.066;2023-03-30T05:06:43;1.27;;;1.20;;
14373;SDS011;7270;49.004;12.066;2023-03-30T05:09:09;1.10;;;1.10;;
14373;SDS011;7270;49.004;12.066;2023-03-30T05:11:35;1.20;;;1.20;;
14373;SDS011;7270;49.004;12.066;2023-03-30T05:14:02;1.10;;;1.10;;
14373;SDS011;7270;49.004;12.066;2023-03-30T05:16:28;1.20;;;1.20;;
14373;SDS011;7270;49.004;12.066;2023-03-30T05:18:55;1.20;;;1.20;;
14373;SDS011;7270;49.004;12.066;2023-03-30T05:21:21;1.10;;;1.10;;
14373;SDS011;7270;49.004;12.066;2023-03-30T05:23:49;1.10;;;1.10;;
14373;SDS011;7270;49.004;12.066;2023-03-30T05:26:16;1.20;;;1.20;;
14373;SDS011;7270;49.004;12.066;2023-03-30T05:28:43;1.10;;;1.10;;
14373;SDS011;7270;49.004;12.066;2023-03-30T05:31:09;1.23;;;1.20;;
14373;SDS011;7270;49.004;12.066;2023-03-30T05:33:36;1.20;;;1.20;;
14373;SDS011;7270;49.004;12.066;2023-03-30T05:36:05;1.00;;;1.00;;
14373;SDS011;7270;49.004;12.066;2023-03-30T05:38:31;1.20;;;1.20;;
14373;SDS011;7270;49.004;12.066;2023-03-30T05:40:58;1.10;;;1.10;;
14373;SDS011;7270;49.004;12.066;2023-03-30T05:43:25;1.10;;;1.10;;
14373;SDS011;7270;49.004;12.066;2023-03-30T05:45:51;1.00;;;1.00;;
14373;SDS011;7270;49.004;12.066;2023-03-30T05:48:17;1.20;;;1.20;;
14373;SDS011;7270;49.004;12.066;2023-03-30T05:50:45;1.13;;;1.13;;
14373;SDS011;7270;49.004;12.066;2023-03-30T05:53:12;1.30;;;1.20;;
14373;SDS011;7270;49.004;12.066;2023-03-30T05:55:38;1.10;;;1.10;;
14373;SDS011;7270;49.004;12.066;2023-03-30T05:58:06;1.10;;;1.10;;
14373;SDS011;7270;49.004;12.066;2023-03-30T06:00:32;1.30;;;1.20;;
14373;SDS011;7270;49.004;12.066;2023-03-30T06:03:00;1.30;;;1.20;;
14373;SDS011;7270;49.004;12.066;2023-03-30T06:05:27;1.20;;;1.20;;
14373;SDS011;7270;49.004;12.066;2023-03-30T06:07:53;1.40;;;1.30;;
14373;SDS011;7270;49.004;12.066;2023-03-30T06:10:20;1.50;;;1.40;;
14373;SDS011;7270;49.004;12.066;2023-03-30T06:12:46;1.40;;;1.30;;
14373;SDS011;7270;49.004;12.066;2023-03-30T06:15:14;1.60;;;1.50;;
14373;SDS011;7270;49.004;12.066;2023-03-30T06:17:40;1.63;;;1.53;;
14373;SDS011;7270;49.004;12.066;2023-03-30T06:20:07;1.50;;;1.40;;
14373;SDS011;7270;49.004;12.066;2023-03-30T06:22:36;1.60;;;1.50;;
14373;SDS011;7270;49.004;12.066;2023-03-30T06:25:02;1.50;;;1.40;;
14373;SDS011;7270;49.004;12.066;2023-03-30T06:27:29;1.60;;;1.50;;
14373;SDS011;7270;49.004;12.066;2023-03-30T06:29:57;1.70;;;1.60;;
14373;SDS011;7270;49.004;12.066;2023-03-30T06:32:24;1.60;;;1.50;;
14373;SDS011;7270;49.004;12.066;2023-03-30T06:34:51;1.53;;;1.43;;
14373;SDS011;7270;49.004;12.066;2023-03-30T06:37:18;1.60;;;1.50;;
14373;SDS011;7270;49.004;12.066;2023-03-30T06:39:44;1.60;;;1.50;;
14373;SDS011;7270;49.004;12.066;2023-03-30T06:42:11;1.60;;;1.50;;
14373;SDS011;7270;49.004;12.066;2023-03-30T06:44:37;1.60;;;1.50;;
14373;SDS011;7270;49.004;12.066;2023-03-30T06:47:04;1.70;;;1.60;;
14373;SDS011;7270;49.004;12.066;2023-03-30T06:49:31;1.60;;;1.50;;
14373;SDS011;7270;49.004;12.066;2023-03-30T06:51:58;1.50;;;1.40;;
14373;SDS011;7270;49.004;12.066;2023-03-30T06:54:25;1.53;;;1.43;;
14373;SDS011;7270;49.004;12.066;2023-03-30T06:56:51;1.40;;;1.30;;
14373;SDS011;7270;49.004;12.066;2023-03-30T06:59:18;1.70;;;1.60;;
14373;SDS011;7270;49.004;12.066;2023-03-30T07:01:44;1.50;;;1.40;;
14373;SDS011;7270;49.004;12.066;2023-03-30T07:04:11;1.40;;;1.30;;
14373;SDS011;7270;49.004;12.066;2023-03-30T07:06:38;1.60;;;1.50;;
14373;SDS011;7270;49.004;12.066;2023-03-30T07:09:05;1.33;;;1.23;;
14373;SDS011;7270;49.004;12.066;2023-03-30T07:11:32;1.43;;;1.33;;
14373;SDS011;7270;49.004;12.066;2023-03-30T07:13:58;1.50;;;1.40;;
14373;SDS011;7270;49.004;12.066;2023-03-30T07:16:25;1.50;;;1.40;;
14373;SDS011;7270;49.004;12.066;2023-03-30T07:18:51;1.40;;;1.30;;
14373;SDS011;7270;49.004;12.066;2023-03-30T07:21:18;1.30;;;1.20;;
14373;SDS011;7270;49.004;12.066;2023-03-30T07:23:45;1.30;;;1.20;;
14373;SDS011;7270;49.004;12.066;2023-03-30T07:26:12;1.50;;;1.40;;
14373;SDS011;7270;49.004;12.066;2023-03-30T07:28:38;1.40;;;1.30;;
14373;SDS011;7270;49.004;12.066;2023-03-30T07:31:05;1.40;;;1.30;;
14373;SDS011;7270;49.004;12.066;2023-03-30T07:33:32;1.40;;;1.30;;
14373;SDS011;7270;49.004;12.066;2023-03-30T07:35:58;1.60;;;1.50;;
14373;SDS011;7270;49.004;12.066;2023-03-30T07:38:25;1.40;;;1.30;;
14373;SDS011;7270;49.004;12.066;2023-03-30T07:40:52;1.50;;;1.40;;
14373;SDS011;7270;49.004;12.066;2023-03-30T07:43:18;1.40;;;1.30;;
14373;SDS011;7270;49.004;12.066;2023-03-30T07:45:45;1.40;;;1.30;;
14373;SDS011;7270;49.004;12.066;2023-03-30T07:48:12;1.40;;;1.30;;
14373;SDS011;7270;49.004;12.066;2023-03-30T07:50:38;1.40;;;1.30;;
14373;SDS011;7270;49.004;12.066;2023-03-30T07:53:04;1.40;;;1.30;;
14373;SDS011;7270;49.004;12.066;2023-03-30T07:55:31;1.30;;;1.20;;
14373;SDS011;7270;49.004;12.066;2023-03-30T07:57:59;1.40;;;1.30;;
14373;SDS011;7270;49.004;12.066;2023-03-30T08:00:25;1.50;;;1.40;;
14373;SDS011;7270;49.004;12.066;2023-03-30T08:02:51;1.37;;;1.27;;
14373;SDS011;7270;49.004;12.066;2023-03-30T08:05:18;1.40;;;1.30;;
14373;SDS011;7270;49.004;12.066;2023-03-30T08:07:44;1.30;;;1.20;;
14373;SDS011;7270;49.004;12.066;2023-03-30T08:10:10;1.27;;;1.20;;
14373;SDS011;7270;49.004;12.066;2023-03-30T08:12:36;1.30;;;1.20;;
14373;SDS011;7270;49.004;12.066;2023-03-30T08:15:05;1.20;;;1.20;;
14373;SDS011;7270;49.004;12.066;2023-03-30T08:17:31;1.10;;;1.10;;
14373;SDS011;7270;49.004;12.066;2023-03-30T08:19:58;1.10;;;1.10;;
14373;SDS011;7270;49.004;12.066;2023-03-30T08:22:25;1.30;;;1.20;;
14373;SDS011;7270;49.004;12.066;2023-03-30T08:24:52;1.30;;;1.20;;
14373;SDS011;7270;49.004;12.066;2023-03-30T08:27:19;1.10;;;1.10;;
14373;SDS011;7270;49.004;12.066;2023-03-30T08:29:45;1.20;;;1.20;;
14373;SDS011;7270;49.004;12.066;2023-03-30T08:32:14;1.00;;;1.00;;
14373;SDS011;7270;49.004;12.066;2023-03-30T08:34:40;1.00;;;1.00;;
14373;SDS011;7270;49.004;12.066;2023-03-30T08:37:06;1.00;;;1.00;;
14373;SDS011;7270;49.004;12.066;2023-03-30T08:39:33;1.00;;;1.00;;
14373;SDS011;7270;49.004;12.066;2023-03-30T08:42:06;1.00;;;1.00;;
14373;SDS011;7270;49.004;12.066;2023-03-30T08:44:34;1.00;;;1.00;;
14373;SDS011;7270;49.004;12.066;2023-03-30T08:47:02;0.90;;;0.90;;
14373;SDS011;7270;49.004;12.066;2023-03-30T08:49:31;0.90;;;0.90;;
14373;SDS011;7270;49.004;12.066;2023-03-30T08:52:00;1.00;;;1.00;;
14373;SDS011;7270;49.004;12.066;2023-03-30T08:54:27;1.00;;;1.00;;
14373;SDS011;7270;49.004;12.066;2023-03-30T08:56:58;0.90;;;0.90;;
14373;SDS011;7270;49.004;12.066;2023-03-30T08:59:27;1.00;;;1.00;;
14373;SDS011;7270;49.004;12.066;2023-03-30T09:01:56;1.00;;;1.00;;
14373;SDS011;7270;49.004;12.066;2023-03-30T09:04:25;0.90;;;0.90;;
14373;SDS011;7270;49.004;12.066;2023-03-30T09:06:54;1.00;;;1.00;;
14373;SDS011;7270;49.004;12.066;2023-03-30T09:09:22;1.00;;;1.00;;
14373;SDS011;7270;49.004;12.066;2023-03-30T09:11:51;1.00;;;1.00;;
14373;SDS011;7270;49.004;12.066;2023-03-30T09:14:21;0.97;;;0.97;;
14373;SDS011;7270;49.004;12.066;2023-03-30T09:16:50;1.00;;;1.00;;
14373;SDS011;7270;49.004;12.066;2023-03-30T09:19:18;0.90;;;0.90;;
14373;SDS011;7270;49.004;12.066;2023-03-30T09:21:46;0.90;;;0.90;;
14373;SDS011;7270;49.004;12.066;2023-03-30T09:24:16;0.90;;;0.90;;
14373;SDS011;7270;49.004;12.066;2023-03-30T09:26:45;0.90;;;0.90;;
14373;SDS011;7270;49.004;12.066;2023-03-30T09:29:14;0.90;;;0.90;;
14373;SDS011;7270;49.004;12.066;2023-03-30T09:31:42;0.97;;;0.97;;
14373;SDS011;7270;49.004;12.066;2023-03-30T09:34:12;0.90;;;0.90;;
14373;SDS011;7270;49.004;12.066;2023-03-30T09:36:41;0.90;;;0.90;;
14373;SDS011;7270;49.004;12.066;2023-03-30T09:39:08;1.00;;;1.00;;
14373;SDS011;7270;49.004;12.066;2023-03-30T09:41:49;0.90;;;0.90;;
14373;SDS011;7270;49.004;12.066;2023-03-30T09:44:18;1.00;;;1.00;;
14373;SDS011;7270;49.004;12.066;2023-03-30T09:46:47;1.00;;;1.00;;
14373;SDS011;7270;49.004;12.066;2023-03-30T09:49:14;0.90;;;0.90;;
14373;SDS011;7270;49.004;12.066;2023-03-30T09:51:51;1.00;;;1.00;;
14373;SDS011;7270;49.004;12.066;2023-03-30T09:54:18;1.00;;;1.00;;
14373;SDS011;7270;49.004;12.066;2023-03-30T09:56:45;1.00;;;1.00;;
14373;SDS011;7270;49.004;12.066;2023-03-30T09:59:20;0.90;;;0.90;;
14373;SDS011;7270;49.004;12.066;2023-03-30T10:01:47;0.93;;;0.93;;
14373;SDS011;7270;49.004;12.066;2023-03-30T10:04:13;1.00;;;1.00;;
14373;SDS011;7270;49.004;12.066;2023-03-30T10:06:43;0.90;;;0.90;;
14373;SDS011;7270;49.004;12.066;2023-03-30T10:09:11;1.00;;;1.00;;
14373;SDS011;7270;49.004;12.066;2023-03-30T10:11:39;1.00;;;1.00;;
14373;SDS011;7270;49.004;12.066;2023-03-30T10:14:22;0.90;;;0.90;;
14373;SDS011;7270;49.004;12.066;2023-03-30T10:16:52;0.90;;;0.90;;
14373;SDS011;7270;49.004;12.066;2023-03-30T10:19:19;1.00;;;1.00;;
14373;SDS011;7270;49.004;12.066;2023-03-30T10:21:46;1.00;;;1.00;;
14373;SDS011;7270;49.004;12.066;2023-03-30T10:24:19;1.00;;;1.00;;
14373;SDS011;7270;49.004;12.066;2023-03-30T10:26:49;1.00;;;1.00;;
14373;SDS011;7270;49.004;12.066;2023-03-30T10:29:15;0.90;;;0.90;;
14373;SDS011;7270;49.004;12.066;2023-03-30T10:31:43;1.00;;;1.00;;
14373;SDS011;7270;49.004;12.066;2023-03-30T10:34:15;0.90;;;0.90;;
14373;SDS011;7270;49.004;12.066;2023-03-30T10:36:41;0.90;;;0.90;;
14373;SDS011;7270;49.004;12.066;2023-03-30T10:39:11;1.00;;;1.00;;
14373;SDS011;7270;49.004;12.066;2023-03-30T10:41:38;1.00;;;1.00;;
14373;SDS011;7270;49.004;12.066;2023-03-30T10:44:09;1.00;;;1.00;;
14373;SDS011;7270;49.004;12.066;2023-03-30T10:46:41;1.00;;;1.00;;
14373;SDS011;7270;49.004;12.066;2023-03-30T10:49:09;1.00;;;1.00;;
14373;SDS011;7270;49.004;12.066;2023-03-30T10:51:40;0.90;;;0.90;;
14373;SDS011;7270;49.004;12.066;2023-03-30T10:54:09;0.90;;;0.90;;
14373;SDS011;7270;49.004;12.066;2023-03-30T10:56:37;0.90;;;0.90;;
14373;SDS011;7270;49.004;12.066;2023-03-30T11:01:48;1.00;;;1.00;;
14373;SDS011;7270;49.004;12.066;2023-03-30T11:04:20;1.00;;;1.00;;
14373;SDS011;7270;49.004;12.066;2023-03-30T11:06:49;1.00;;;1.00;;
14373;SDS011;7270;49.004;12.066;2023-03-30T11:09:17;0.90;;;0.90;;
14373;SDS011;7270;49.004;12.066;2023-03-30T11:11:46;0.90;;;0.90;;
14373;SDS011;7270;49.004;12.066;2023-03-30T11:14:15;0.90;;;0.90;;
14373;SDS011;7270;49.004;12.066;2023-03-30T11:16:45;1.00;;;1.00;;
14373;SDS011;7270;49.004;12.066;2023-03-30T11:19:15;0.90;;;0.90;;
14373;SDS011;7270;49.004;12.066;2023-03-30T11:21:44;0.97;;;0.97;;
14373;SDS011;7270;49.004;12.066;2023-03-30T11:24:16;1.00;;;1.00;;
14373;SDS011;7270;49.004;12.066;2023-03-30T11:26:44;0.90;;;0.90;;
14373;SDS011;7270;49.004;12.066;2023-03-30T11:29:16;1.00;;;1.00;;
14373;SDS011;7270;49.004;12.066;2023-03-30T11:31:47;0.80;;;0.80;;
14373;SDS011;7270;49.004;12.066;2023-03-30T11:34:16;1.00;;;1.00;;
14373;SDS011;7270;49.004;12.066;2023-03-30T11:36:47;0.90;;;0.90;;
14373;SDS011;7270;49.004;12.066;2023-03-30T11:39:17;1.00;;;1.00;;
14373;SDS011;7270;49.004;12.066;2023-03-30T11:41:47;0.90;;;0.90;;
14373;SDS011;7270;49.004;12.066;2023-03-30T11:44:15;0.93;;;0.93;;
14373;SDS011;7270;49.004;12.066;2023-03-30T11:46:43;0.90;;;0.90;;
14373;SDS011;7270;49.004;12.066;2023-03-30T11:49:22;0.90;;;0.90;;
14373;SDS011;7270;49.004;12.066;2023-03-30T11:51:52;0.90;;;0.90;;
14373;SDS011;7270;49.004;12.066;2023-03-30T11:54:27;0.90;;;0.90;;
14373;SDS011;7270;49.004;12.066;2023-03-30T11:56:57;0.90;;;0.90;;
14373;SDS011;7270;49.004;12.066;2023-03-30T11:59:27;0.90;;;0.90;;
14373;SDS011;7270;49.004;12.066;2023-03-30T12:01:59;0.90;;;0.90;;
14373;SDS011;7270;49.004;12.066;2023-03-30T12:04:29;1.10;;;1.10;;
14373;SDS011;7270;49.004;12.066;2023-03-30T12:06:59;0.90;;;0.90;;
14373;SDS011;7270;49.004;12.066;2023-03-30T12:09:28;1.00;;;1.00;;
14373;SDS011;7270;49.004;12.066;2023-03-30T12:12:01;0.90;;;0.90;;
14373;SDS011;7270;49.004;12.066;2023-03-30T12:14:33;1.00;;;1.00;;
14373;SDS011;7270;49.004;12.066;2023-03-30T12:17:02;0.97;;;0.97;;
14373;SDS011;7270;49.004;12.066;2023-03-30T12:19:34;1.00;;;1.00;;
14373;SDS011;7270;49.004;12.066;2023-03-30T12:22:03;0.90;;;0.90;;
14373;SDS011;7270;49.004;12.066;2023-03-30T12:24:34;0.80;;;0.80;;
14373;SDS011;7270;49.004;12.066;2023-03-30T12:27:01;0.80;;;0.80;;
14373;SDS011;7270;49.004;12.066;2023-03-30T12:29:42;0.80;;;0.80;;
14373;SDS011;7270;49.004;12.066;2023-03-30T12:32:18;0.90;;;0.90;;
14373;SDS011;7270;49.004;12.066;2023-03-30T12:34:44;1.00;;;1.00;;
14373;SDS011;7270;49.004;12.066;2023-03-30T12:37:11;0.90;;;0.90;;
14373;SDS011;7270;49.004;12.066;2023-03-30T12:39:40;0.90;;;0.90;;
14373;SDS011;7270;49.004;12.066;2023-03-30T12:42:14;1.00;;;1.00;;
14373;SDS011;7270;49.004;12.066;2023-03-30T12:44:50;0.97;;;0.97;;
14373;SDS011;7270;49.004;12.066;2023-03-30T12:47:23;0.80;;;0.80;;
14373;SDS011;7270;49.004;12.066;2023-03-30T12:52:51;0.80;;;0.80;;
14373;SDS011;7270;49.004;12.066;2023-03-30T12:55:28;0.90;;;0.90;;
14373;SDS011;7270;49.004;12.066;2023-03-30T12:58:03;0.90;;;0.90;;
14373;SDS011;7270;49.004;12.066;2023-03-30T13:00:37;0.90;;;0.90;;
14373;SDS011;7270;49.004;12.066;2023-03-30T13:03:24;0.90;;;0.90;;
14373;SDS011;7270;49.004;12.066;2023-03-30T13:05:53;0.80;;;0.80;;
14373;SDS011;7270;49.004;12.066;2023-03-30T13:08:24;1.00;;;1.00;;
14373;SDS011;7270;49.004;12.066;2023-03-30T13:11:05;0.90;;;0.90;;
14373;SDS011;7270;49.004;12.066;2023-03-30T13:19:13;0.83;;;0.83;;
14373;SDS011;7270;49.004;12.066;2023-03-30T13:21:45;0.87;;;0.87;;
14373;SDS011;7270;49.004;12.066;2023-03-30T13:24:20;0.90;;;0.90;;
14373;SDS011;7270;49.004;12.066;2023-03-30T13:26:50;1.00;;;1.00;;
14373;SDS011;7270;49.004;12.066;2023-03-30T13:29:18;0.90;;;0.90;;
14373;SDS011;7270;49.004;12.066;2023-03-30T13:31:49;0.80;;;0.80;;
14373;SDS011;7270;49.004;12.066;2023-03-30T13:34:22;0.90;;;0.90;;
14373;SDS011;7270;49.004;12.066;2023-03-30T13:36:51;0.80;;;0.80;;
14373;SDS011;7270;49.004;12.066;2023-03-30T13:39:20;0.90;;;0.90;;
14373;SDS011;7270;49.004;12.066;2023-03-30T13:41:53;1.00;;;1.00;;
14373;SDS011;7270;49.004;12.066;2023-03-30T13:44:26;0.70;;;0.70;;
14373;SDS011;7270;49.004;12.066;2023-03-30T13:46:58;0.80;;;0.80;;
14373;SDS011;7270;49.004;12.066;2023-03-30T13:49:34;0.90;;;0.90;;
14373;SDS011;7270;49.004;12.066;2023-03-30T13:52:02;0.80;;;0.80;;
14373;SDS011;7270;49.004;12.066;2023-03-30T13:54:30;0.90;;;0.90;;
14373;SDS011;7270;49.004;12.066;2023-03-30T13:57:00;0.90;;;0.90;;
14373;SDS011;7270;49.004;12.066;2023-03-30T13:59:28;0.80;;;0.80;;
14373;SDS011;7270;49.004;12.066;2023-03-30T14:01:56;0.80;;;0.80;;
14373;SDS011;7270;49.004;12.066;2023-03-30T14:04:27;0.80;;;0.80;;
14373;SDS011;7270;49.004;12.066;2023-03-30T14:06:53;0.80;;;0.80;;
14373;SDS011;7270;49.004;12.066;2023-03-30T14:09:23;0.90;;;0.90;;
14373;SDS011;7270;49.004;12.066;2023-03-30T14:11:50;0.70;;;0.70;;
14373;SDS011;7270;49.004;12.066;2023-03-30T14:14:19;0.80;;;0.80;;
14373;SDS011;7270;49.004;12.066;2023-03-30T14:16:47;0.83;;;0.83;;
14373;SDS011;7270;49.004;12.066;2023-03-30T14:19:16;0.77;;;0.77;;
14373;SDS011;7270;49.004;12.066;2023-03-30T14:21:45;0.90;;;0.90;;
14373;SDS011;7270;49.004;12.066;2023-03-30T14:24:13;0.90;;;0.90;;
14373;SDS011;7270;49.004;12.066;2023-03-30T14:26:40;0.80;;;0.80;;
14373;SDS011;7270;49.004;12.066;2023-03-30T14:29:09;0.90;;;0.90;;
14373;SDS011;7270;49.004;12.066;2023-03-30T14:31:38;0.80;;;0.80;;
14373;SDS011;7270;49.004;12.066;2023-03-30T14:34:19;0.90;;;0.90;;
14373;SDS011;7270;49.004;12.066;2023-03-30T14:36:45;1.00;;;1.00;;
14373;SDS011;7270;49.004;12.066;2023-03-30T14:39:12;0.90;;;0.90;;
14373;SDS011;7270;49.004;12.066;2023-03-30T14:41:38;0.80;;;0.80;;
14373;SDS011;7270;49.004;12.066;2023-03-30T14:44:05;0.90;;;0.90;;
14373;SDS011;7270;49.004;12.066;2023-03-30T14:46:34;0.90;;;0.90;;
14373;SDS011;7270;49.004;12.066;2023-03-30T14:49:03;0.90;;;0.90;;
14373;SDS011;7270;49.004;12.066;2023-03-30T14:51:34;0.90;;;0.90;;
14373;SDS011;7270;49.004;12.066;2023-03-30T14:54:01;0.80;;;0.80;;
14373;SDS011;7270;49.004;12.066;2023-03-30T14:56:28;0.80;;;0.80;;
14373;SDS011;7270;49.004;12.066;2023-03-30T14:58:54;0.93;;;0.93;;
14373;SDS011;7270;49.004;12.066;2023-03-30T15:01:23;0.90;;;0.90;;
14373;SDS011;7270;49.004;12.066;2023-03-30T15:03:54;0.80;;;0.80;;
14373;SDS011;7270;49.004;12.066;2023-03-30T15:06:23;1.00;;;1.00;;
14373;SDS011;7270;49.004;12.066;2023-03-30T15:08:50;1.00;;;1.00;;
14373;SDS011;7270;49.004;12.066;2023-03-30T15:11:18;0.80;;;0.80;;